sensor_id;sensor_type;location;lat;lon;timestamp;P1;durP1;ratioP1;P2;durP2;ratioP2
30370;SDS011;17164;48.590;11.410;2022-08-05T00:01:19;5.83;;;2.40;;
30370;SDS011;17164;48.590;11.410;2022-08-05T00:03:46;4.80;;;1.80;;
30370;SDS011;17164;48.590;11.410;2022-08-05T00:06:12;2.77;;;1.80;;
30370;SDS011;17164;48.590;11.410;2022-08-05T00:08:39;2.30;;;1.70;;
30370;SDS011;17164;48.590;11.410;2022-08-05T00:11:06;3.13;;;1.97;;
30370;SDS011;17164;48.590;11.410;2022-08-05T00:13:36;3.53;;;2.20;;
30370;SDS011;17164;48.590;11.410;2022-08-05T00:16:04;8.97;;;2.07;;
30370;SDS011;17164;48.590;11.410;2022-08-05T00:18:30;5.73;;;2.23;;
30370;SDS011;17164;48.590;11.410;2022-08-05T00:20:56;2.20;;;1.63;;
30370;SDS011;17164;48.590;11.410;2022-08-05T00:23:22;5.10;;;2.30;;
30370;SDS011;17164;48.590;11.410;2022-08-05T00:25:48;3.70;;;2.10;;
30370;SDS011;17164;48.590;11.410;2022-08-05T00:28:14;3.00;;;2.10;;
30370;SDS011;17164;48.590;11.410;2022-08-05T00:30:40;3.00;;;1.90;;
30370;SDS011;17164;48.590;11.410;2022-08-05T00:33:06;4.27;;;1.97;;
30370;SDS011;17164;48.590;11.410;2022-08-05T00:35:32;3.40;;;2.10;;
30370;SDS011;17164;48.590;11.410;2022-08-05T00:37:58;4.80;;;2.17;;
30370;SDS011;17164;48.590;11.410;2022-08-05T00:40:24;4.20;;;2.00;;
30370;SDS011;17164;48.590;11.410;2022-08-05T00:42:51;3.73;;;2.30;;
30370;SDS011;17164;48.590;11.410;2022-08-05T00:45:17;2.67;;;1.70;;
30370;SDS011;17164;48.590;11.410;2022-08-05T00:47:43;3.87;;;1.90;;
30370;SDS011;17164;48.590;11.410;2022-08-05T00:50:09;3.97;;;2.17;;
30370;SDS011;17164;48.590;11.410;2022-08-05T00:52:35;2.67;;;1.70;;
30370;SDS011;17164;48.590;11.410;2022-08-05T00:55:00;3.67;;;2.17;;
30370;SDS011;17164;48.590;11.410;2022-08-05T00:57:26;3.00;;;2.07;;
30370;SDS011;17164;48.590;11.410;2022-08-05T00:59:52;2.80;;;1.80;;
30370;SDS011;17164;48.590;11.410;2022-08-05T01:02:18;4.40;;;2.00;;
30370;SDS011;17164;48.590;11.410;2022-08-05T01:04:43;3.73;;;2.20;;
30370;SDS011;17164;48.590;11.410;2022-08-05T01:07:09;7.17;;;2.10;;
30370;SDS011;17164;48.590;11.410;2022-08-05T01:09:35;4.37;;;2.27;;
30370;SDS011;17164;48.590;11.410;2022-08-05T01:12:05;5.53;;;2.03;;
30370;SDS011;17164;48.590;11.410;2022-08-05T01:14:40;3.17;;;2.00;;
30370;SDS011;17164;48.590;11.410;2022-08-05T01:17:13;5.37;;;2.10;;
30370;SDS011;17164;48.590;11.410;2022-08-05T01:19:58;3.13;;;2.10;;
30370;SDS011;17164;48.590;11.410;2022-08-05T01:25:36;2.97;;;2.00;;
30370;SDS011;17164;48.590;11.410;2022-08-05T01:28:29;3.20;;;2.40;;
30370;SDS011;17164;48.590;11.410;2022-08-05T01:33:51;6.63;;;2.27;;
30370;SDS011;17164;48.590;11.410;2022-08-05T01:36:25;8.40;;;2.57;;
30370;SDS011;17164;48.590;11.410;2022-08-05T01:38:55;3.03;;;2.30;;
30370;SDS011;17164;48.590;11.410;2022-08-05T01:41:21;9.20;;;2.20;;
30370;SDS011;17164;48.590;11.410;2022-08-05T01:43:48;3.07;;;2.30;;
30370;SDS011;17164;48.590;11.410;2022-08-05T01:46:16;3.97;;;2.20;;
30370;SDS011;17164;48.590;11.410;2022-08-05T01:48:44;2.80;;;2.20;;
30370;SDS011;17164;48.590;11.410;2022-08-05T01:51:11;3.90;;;2.63;;
30370;SDS011;17164;48.590;11.410;2022-08-05T01:53:40;3.50;;;2.27;;
30370;SDS011;17164;48.590;11.410;2022-08-05T01:56:10;2.47;;;2.00;;
30370;SDS011;17164;48.590;11.410;2022-08-05T01:58:38;2.57;;;2.00;;
30370;SDS011;17164;48.590;11.410;2022-08-05T02:01:06;5.43;;;2.47;;
30370;SDS011;17164;48.590;11.410;2022-08-05T02:03:35;5.33;;;2.40;;
30370;SDS011;17164;48.590;11.410;2022-08-05T02:06:04;5.23;;;2.30;;
30370;SDS011;17164;48.590;11.410;2022-08-05T02:08:31;7.57;;;2.20;;
30370;SDS011;17164;48.590;11.410;2022-08-05T02:10:58;4.50;;;2.50;;
30370;SDS011;17164;48.590;11.410;2022-08-05T02:18:49;3.10;;;2.50;;
30370;SDS011;17164;48.590;11.410;2022-08-05T02:21:21;3.60;;;2.47;;
30370;SDS011;17164;48.590;11.410;2022-08-05T02:23:54;3.90;;;2.70;;
30370;SDS011;17164;48.590;11.410;2022-08-05T02:26:44;3.50;;;2.47;;
30370;SDS011;17164;48.590;11.410;2022-08-05T02:29:13;4.27;;;2.07;;
30370;SDS011;17164;48.590;11.410;2022-08-05T02:31:43;4.70;;;2.30;;
30370;SDS011;17164;48.590;11.410;2022-08-05T02:34:11;5.70;;;2.50;;
30370;SDS011;17164;48.590;11.410;2022-08-05T02:36:40;5.50;;;2.17;;
30370;SDS011;17164;48.590;11.410;2022-08-05T02:39:09;4.60;;;2.83;;
30370;SDS011;17164;48.590;11.410;2022-08-05T02:41:36;6.83;;;2.33;;
30370;SDS011;17164;48.590;11.410;2022-08-05T02:44:07;2.87;;;2.10;;
30370;SDS011;17164;48.590;11.410;2022-08-05T02:46:35;2.97;;;2.37;;
30370;SDS011;17164;48.590;11.410;2022-08-05T02:49:02;3.47;;;2.23;;
30370;SDS011;17164;48.590;11.410;2022-08-05T02:51:30;4.73;;;2.10;;
30370;SDS011;17164;48.590;11.410;2022-08-05T02:53:56;3.30;;;2.10;;
30370;SDS011;17164;48.590;11.410;2022-08-05T02:56:22;7.30;;;2.60;;
30370;SDS011;17164;48.590;11.410;2022-08-05T02:58:48;3.80;;;2.63;;
30370;SDS011;17164;48.590;11.410;2022-08-05T03:01:19;4.53;;;2.60;;
30370;SDS011;17164;48.590;11.410;2022-08-05T03:03:49;5.70;;;2.47;;
30370;SDS011;17164;48.590;11.410;2022-08-05T03:06:18;5.03;;;2.50;;
30370;SDS011;17164;48.590;11.410;2022-08-05T03:08:45;4.20;;;2.70;;
30370;SDS011;17164;48.590;11.410;2022-08-05T03:11:16;4.00;;;2.60;;
30370;SDS011;17164;48.590;11.410;2022-08-05T03:13:46;8.07;;;2.60;;
30370;SDS011;17164;48.590;11.410;2022-08-05T03:16:12;9.20;;;3.13;;
30370;SDS011;17164;48.590;11.410;2022-08-05T03:18:38;6.57;;;2.43;;
30370;SDS011;17164;48.590;11.410;2022-08-05T03:21:04;4.00;;;2.30;;
30370;SDS011;17164;48.590;11.410;2022-08-05T03:23:29;4.47;;;2.77;;
30370;SDS011;17164;48.590;11.410;2022-08-05T03:25:57;3.23;;;2.50;;
30370;SDS011;17164;48.590;11.410;2022-08-05T03:28:23;4.67;;;2.60;;
30370;SDS011;17164;48.590;11.410;2022-08-05T03:30:49;5.70;;;2.73;;
30370;SDS011;17164;48.590;11.410;2022-08-05T03:33:15;4.93;;;2.60;;
30370;SDS011;17164;48.590;11.410;2022-08-05T03:35:43;3.80;;;2.33;;
30370;SDS011;17164;48.590;11.410;2022-08-05T03:38:10;4.10;;;2.63;;
30370;SDS011;17164;48.590;11.410;2022-08-05T03:40:40;3.63;;;2.53;;
30370;SDS011;17164;48.590;11.410;2022-08-05T03:43:06;3.83;;;2.50;;
30370;SDS011;17164;48.590;11.410;2022-08-05T03:45:32;3.53;;;2.40;;
30370;SDS011;17164;48.590;11.410;2022-08-05T03:47:57;2.90;;;2.57;;
30370;SDS011;17164;48.590;11.410;2022-08-05T03:50:24;4.40;;;2.63;;
30370;SDS011;17164;48.590;11.410;2022-08-05T03:52:59;3.33;;;2.50;;
30370;SDS011;17164;48.590;11.410;2022-08-05T03:55:52;3.90;;;2.50;;
30370;SDS011;17164;48.590;11.410;2022-08-05T03:58:27;4.23;;;3.00;;
30370;SDS011;17164;48.590;11.410;2022-08-05T04:00:57;4.03;;;2.37;;
30370;SDS011;17164;48.590;11.410;2022-08-05T04:03:24;3.50;;;2.70;;
30370;SDS011;17164;48.590;11.410;2022-08-05T04:05:52;4.20;;;2.30;;
30370;SDS011;17164;48.590;11.410;2022-08-05T04:08:19;6.67;;;3.00;;
30370;SDS011;17164;48.590;11.410;2022-08-05T04:10:45;5.53;;;2.80;;
30370;SDS011;17164;48.590;11.410;2022-08-05T04:13:11;7.23;;;2.80;;
30370;SDS011;17164;48.590;11.410;2022-08-05T04:15:37;5.97;;;3.13;;
30370;SDS011;17164;48.590;11.410;2022-08-05T04:18:04;3.87;;;2.50;;
30370;SDS011;17164;48.590;11.410;2022-08-05T04:20:29;4.37;;;2.63;;
30370;SDS011;17164;48.590;11.410;2022-08-05T04:22:55;6.60;;;3.00;;
30370;SDS011;17164;48.590;11.410;2022-08-05T04:25:21;5.33;;;2.50;;
30370;SDS011;17164;48.590;11.410;2022-08-05T04:27:46;8.83;;;2.87;;
30370;SDS011;17164;48.590;11.410;2022-08-05T04:30:12;4.27;;;2.60;;
30370;SDS011;17164;48.590;11.410;2022-08-05T04:32:38;5.63;;;3.23;;
30370;SDS011;17164;48.590;11.410;2022-08-05T04:35:04;3.60;;;2.67;;
30370;SDS011;17164;48.590;11.410;2022-08-05T04:37:31;4.10;;;2.70;;
30370;SDS011;17164;48.590;11.410;2022-08-05T04:39:57;6.07;;;3.07;;
30370;SDS011;17164;48.590;11.410;2022-08-05T04:42:23;4.40;;;2.83;;
30370;SDS011;17164;48.590;11.410;2022-08-05T04:44:48;9.50;;;3.00;;
30370;SDS011;17164;48.590;11.410;2022-08-05T04:47:14;5.47;;;3.13;;
30370;SDS011;17164;48.590;11.410;2022-08-05T04:49:40;5.60;;;2.87;;
30370;SDS011;17164;48.590;11.410;2022-08-05T04:52:05;5.03;;;2.90;;
30370;SDS011;17164;48.590;11.410;2022-08-05T04:54:31;6.17;;;3.27;;
30370;SDS011;17164;48.590;11.410;2022-08-05T04:56:57;4.47;;;3.00;;
30370;SDS011;17164;48.590;11.410;2022-08-05T04:59:22;4.60;;;2.90;;
30370;SDS011;17164;48.590;11.410;2022-08-05T05:01:48;5.43;;;3.00;;
30370;SDS011;17164;48.590;11.410;2022-08-05T05:04:15;6.33;;;3.80;;
30370;SDS011;17164;48.590;11.410;2022-08-05T05:06:40;4.50;;;3.40;;
30370;SDS011;17164;48.590;11.410;2022-08-05T05:09:06;7.97;;;3.30;;
30370;SDS011;17164;48.590;11.410;2022-08-05T05:11:32;8.60;;;3.30;;
30370;SDS011;17164;48.590;11.410;2022-08-05T05:13:57;4.97;;;2.87;;
30370;SDS011;17164;48.590;11.410;2022-08-05T05:16:23;5.77;;;2.93;;
30370;SDS011;17164;48.590;11.410;2022-08-05T05:18:48;7.37;;;3.30;;
30370;SDS011;17164;48.590;11.410;2022-08-05T05:21:14;6.47;;;2.83;;
30370;SDS011;17164;48.590;11.410;2022-08-05T05:23:40;6.63;;;3.40;;
30370;SDS011;17164;48.590;11.410;2022-08-05T05:26:06;6.90;;;3.40;;
30370;SDS011;17164;48.590;11.410;2022-08-05T05:28:31;5.87;;;2.77;;
30370;SDS011;17164;48.590;11.410;2022-08-05T05:30:57;12.67;;;3.30;;
30370;SDS011;17164;48.590;11.410;2022-08-05T05:33:23;3.93;;;3.10;;
30370;SDS011;17164;48.590;11.410;2022-08-05T05:35:49;4.33;;;2.90;;
30370;SDS011;17164;48.590;11.410;2022-08-05T05:38:15;6.33;;;3.13;;
30370;SDS011;17164;48.590;11.410;2022-08-05T05:40:41;4.67;;;2.73;;
30370;SDS011;17164;48.590;11.410;2022-08-05T05:43:07;7.27;;;3.23;;
30370;SDS011;17164;48.590;11.410;2022-08-05T05:45:33;5.47;;;2.93;;
30370;SDS011;17164;48.590;11.410;2022-08-05T05:47:58;3.37;;;2.87;;
30370;SDS011;17164;48.590;11.410;2022-08-05T05:50:25;7.83;;;3.03;;
30370;SDS011;17164;48.590;11.410;2022-08-05T05:52:51;5.67;;;3.03;;
30370;SDS011;17164;48.590;11.410;2022-08-05T05:55:16;6.00;;;2.93;;
30370;SDS011;17164;48.590;11.410;2022-08-05T05:57:43;3.83;;;2.87;;
30370;SDS011;17164;48.590;11.410;2022-08-05T06:00:12;9.20;;;3.03;;
30370;SDS011;17164;48.590;11.410;2022-08-05T06:02:40;8.53;;;3.40;;
30370;SDS011;17164;48.590;11.410;2022-08-05T06:05:06;4.87;;;3.30;;
30370;SDS011;17164;48.590;11.410;2022-08-05T06:07:33;6.67;;;3.20;;
30370;SDS011;17164;48.590;11.410;2022-08-05T06:09:58;5.23;;;3.10;;
30370;SDS011;17164;48.590;11.410;2022-08-05T06:12:24;6.13;;;3.20;;
30370;SDS011;17164;48.590;11.410;2022-08-05T06:14:50;4.77;;;3.20;;
30370;SDS011;17164;48.590;11.410;2022-08-05T06:17:15;6.37;;;3.30;;
30370;SDS011;17164;48.590;11.410;2022-08-05T06:19:41;7.27;;;3.40;;
30370;SDS011;17164;48.590;11.410;2022-08-05T06:22:07;7.43;;;2.80;;
30370;SDS011;17164;48.590;11.410;2022-08-05T06:24:33;4.73;;;3.00;;
30370;SDS011;17164;48.590;11.410;2022-08-05T06:26:59;6.73;;;3.23;;
30370;SDS011;17164;48.590;11.410;2022-08-05T06:29:26;6.33;;;3.50;;
30370;SDS011;17164;48.590;11.410;2022-08-05T06:31:52;7.80;;;3.40;;
30370;SDS011;17164;48.590;11.410;2022-08-05T06:34:17;9.17;;;3.57;;
30370;SDS011;17164;48.590;11.410;2022-08-05T06:36:43;5.17;;;2.93;;
30370;SDS011;17164;48.590;11.410;2022-08-05T06:39:09;9.00;;;3.57;;
30370;SDS011;17164;48.590;11.410;2022-08-05T06:41:35;4.47;;;3.33;;
30370;SDS011;17164;48.590;11.410;2022-08-05T06:44:00;6.90;;;3.50;;
30370;SDS011;17164;48.590;11.410;2022-08-05T06:46:26;11.67;;;3.50;;
30370;SDS011;17164;48.590;11.410;2022-08-05T06:48:51;5.73;;;3.33;;
30370;SDS011;17164;48.590;11.410;2022-08-05T06:51:17;7.13;;;3.20;;
30370;SDS011;17164;48.590;11.410;2022-08-05T06:53:43;4.73;;;2.87;;
30370;SDS011;17164;48.590;11.410;2022-08-05T06:56:08;8.10;;;3.27;;
30370;SDS011;17164;48.590;11.410;2022-08-05T06:58:34;4.93;;;3.30;;
30370;SDS011;17164;48.590;11.410;2022-08-05T07:01:00;7.57;;;2.80;;
30370;SDS011;17164;48.590;11.410;2022-08-05T07:03:27;4.33;;;3.27;;
30370;SDS011;17164;48.590;11.410;2022-08-05T07:05:54;4.33;;;2.73;;
30370;SDS011;17164;48.590;11.410;2022-08-05T07:08:20;6.77;;;3.33;;
30370;SDS011;17164;48.590;11.410;2022-08-05T07:10:46;5.57;;;2.93;;
30370;SDS011;17164;48.590;11.410;2022-08-05T07:13:12;5.87;;;3.47;;
30370;SDS011;17164;48.590;11.410;2022-08-05T07:15:57;4.87;;;3.07;;
30370;SDS011;17164;48.590;11.410;2022-08-05T07:18:41;5.00;;;3.17;;
30370;SDS011;17164;48.590;11.410;2022-08-05T07:21:06;6.43;;;3.30;;
30370;SDS011;17164;48.590;11.410;2022-08-05T07:23:32;8.13;;;3.60;;
30370;SDS011;17164;48.590;11.410;2022-08-05T07:25:58;5.43;;;3.37;;
30370;SDS011;17164;48.590;11.410;2022-08-05T07:28:24;9.27;;;3.10;;
30370;SDS011;17164;48.590;11.410;2022-08-05T07:30:51;7.53;;;3.27;;
30370;SDS011;17164;48.590;11.410;2022-08-05T07:33:16;3.83;;;3.00;;
30370;SDS011;17164;48.590;11.410;2022-08-05T07:35:44;6.20;;;3.10;;
30370;SDS011;17164;48.590;11.410;2022-08-05T07:38:10;4.43;;;2.60;;
30370;SDS011;17164;48.590;11.410;2022-08-05T07:40:36;7.10;;;3.63;;
30370;SDS011;17164;48.590;11.410;2022-08-05T07:43:02;6.87;;;2.90;;
30370;SDS011;17164;48.590;11.410;2022-08-05T07:45:27;6.30;;;2.97;;
30370;SDS011;17164;48.590;11.410;2022-08-05T07:47:53;6.53;;;3.10;;
30370;SDS011;17164;48.590;11.410;2022-08-05T07:50:18;6.37;;;2.73;;
30370;SDS011;17164;48.590;11.410;2022-08-05T07:52:44;6.97;;;3.50;;
30370;SDS011;17164;48.590;11.410;2022-08-05T07:55:10;10.67;;;3.80;;
30370;SDS011;17164;48.590;11.410;2022-08-05T07:57:36;7.13;;;2.57;;
30370;SDS011;17164;48.590;11.410;2022-08-05T08:00:03;8.30;;;2.90;;
30370;SDS011;17164;48.590;11.410;2022-08-05T08:02:29;7.07;;;2.83;;
30370;SDS011;17164;48.590;11.410;2022-08-05T08:04:55;12.30;;;3.10;;
30370;SDS011;17164;48.590;11.410;2022-08-05T08:07:20;8.77;;;2.93;;
30370;SDS011;17164;48.590;11.410;2022-08-05T08:09:47;5.93;;;2.87;;
30370;SDS011;17164;48.590;11.410;2022-08-05T08:12:14;10.87;;;3.20;;
30370;SDS011;17164;48.590;11.410;2022-08-05T08:14:40;8.23;;;2.77;;
30370;SDS011;17164;48.590;11.410;2022-08-05T08:17:06;5.63;;;2.77;;
30370;SDS011;17164;48.590;11.410;2022-08-05T08:19:35;4.97;;;2.20;;
30370;SDS011;17164;48.590;11.410;2022-08-05T08:22:01;5.70;;;2.50;;
30370;SDS011;17164;48.590;11.410;2022-08-05T08:24:28;7.83;;;2.80;;
30370;SDS011;17164;48.590;11.410;2022-08-05T08:26:54;5.27;;;2.40;;
30370;SDS011;17164;48.590;11.410;2022-08-05T08:29:19;6.70;;;2.40;;
30370;SDS011;17164;48.590;11.410;2022-08-05T08:31:45;5.97;;;2.07;;
30370;SDS011;17164;48.590;11.410;2022-08-05T08:34:11;6.83;;;2.20;;
30370;SDS011;17164;48.590;11.410;2022-08-05T08:36:37;11.47;;;2.63;;
30370;SDS011;17164;48.590;11.410;2022-08-05T08:39:03;3.87;;;2.07;;
30370;SDS011;17164;48.590;11.410;2022-08-05T08:41:29;7.80;;;2.60;;
30370;SDS011;17164;48.590;11.410;2022-08-05T08:43:57;7.40;;;2.03;;
30370;SDS011;17164;48.590;11.410;2022-08-05T08:46:26;5.90;;;1.70;;
30370;SDS011;17164;48.590;11.410;2022-08-05T08:48:55;7.13;;;2.17;;
30370;SDS011;17164;48.590;11.410;2022-08-05T08:51:21;6.87;;;1.97;;
30370;SDS011;17164;48.590;11.410;2022-08-05T08:53:48;13.77;;;2.50;;
30370;SDS011;17164;48.590;11.410;2022-08-05T08:56:14;7.50;;;2.17;;
30370;SDS011;17164;48.590;11.410;2022-08-05T08:58:41;6.20;;;2.80;;
30370;SDS011;17164;48.590;11.410;2022-08-05T09:01:07;3.77;;;1.77;;
30370;SDS011;17164;48.590;11.410;2022-08-05T09:03:34;5.70;;;1.63;;
30370;SDS011;17164;48.590;11.410;2022-08-05T09:06:00;7.47;;;1.87;;
30370;SDS011;17164;48.590;11.410;2022-08-05T09:08:26;5.03;;;1.97;;
30370;SDS011;17164;48.590;11.410;2022-08-05T09:10:51;5.90;;;2.00;;
30370;SDS011;17164;48.590;11.410;2022-08-05T09:13:17;7.83;;;2.23;;
30370;SDS011;17164;48.590;11.410;2022-08-05T09:15:44;7.13;;;2.60;;
30370;SDS011;17164;48.590;11.410;2022-08-05T09:18:10;5.13;;;1.93;;
30370;SDS011;17164;48.590;11.410;2022-08-05T09:20:36;7.93;;;1.80;;
30370;SDS011;17164;48.590;11.410;2022-08-05T09:23:05;5.33;;;1.63;;
30370;SDS011;17164;48.590;11.410;2022-08-05T09:25:40;4.50;;;2.00;;
30370;SDS011;17164;48.590;11.410;2022-08-05T09:28:14;4.43;;;1.70;;
30370;SDS011;17164;48.590;11.410;2022-08-05T09:30:55;3.67;;;1.50;;
30370;SDS011;17164;48.590;11.410;2022-08-05T09:33:23;3.07;;;1.40;;
30370;SDS011;17164;48.590;11.410;2022-08-05T09:35:54;2.07;;;1.47;;
30370;SDS011;17164;48.590;11.410;2022-08-05T09:38:20;4.40;;;1.77;;
30370;SDS011;17164;48.590;11.410;2022-08-05T09:40:46;7.53;;;1.70;;
30370;SDS011;17164;48.590;11.410;2022-08-05T09:45:59;4.33;;;1.70;;
30370;SDS011;17164;48.590;11.410;2022-08-05T09:48:29;4.40;;;1.73;;
30370;SDS011;17164;48.590;11.410;2022-08-05T09:50:57;5.83;;;2.20;;
30370;SDS011;17164;48.590;11.410;2022-08-05T09:53:28;4.47;;;1.60;;
30370;SDS011;17164;48.590;11.410;2022-08-05T09:55:58;6.20;;;1.70;;
30370;SDS011;17164;48.590;11.410;2022-08-05T09:58:25;3.00;;;1.80;;
30370;SDS011;17164;48.590;11.410;2022-08-05T10:00:56;5.97;;;1.80;;
30370;SDS011;17164;48.590;11.410;2022-08-05T10:03:24;3.10;;;1.57;;
30370;SDS011;17164;48.590;11.410;2022-08-05T10:06:01;6.23;;;1.80;;
30370;SDS011;17164;48.590;11.410;2022-08-05T10:08:28;5.07;;;1.60;;
30370;SDS011;17164;48.590;11.410;2022-08-05T10:10:53;4.83;;;1.70;;
30370;SDS011;17164;48.590;11.410;2022-08-05T10:13:26;4.60;;;1.63;;
30370;SDS011;17164;48.590;11.410;2022-08-05T10:15:55;5.33;;;2.00;;
30370;SDS011;17164;48.590;11.410;2022-08-05T10:18:22;6.83;;;1.77;;
30370;SDS011;17164;48.590;11.410;2022-08-05T10:20:51;8.63;;;2.17;;
30370;SDS011;17164;48.590;11.410;2022-08-05T10:23:22;4.40;;;2.10;;
30370;SDS011;17164;48.590;11.410;2022-08-05T10:25:50;2.90;;;1.40;;
30370;SDS011;17164;48.590;11.410;2022-08-05T10:28:16;3.47;;;1.87;;
30370;SDS011;17164;48.590;11.410;2022-08-05T10:30:43;4.90;;;1.87;;
30370;SDS011;17164;48.590;11.410;2022-08-05T10:33:09;4.73;;;2.53;;
30370;SDS011;17164;48.590;11.410;2022-08-05T10:35:35;1.73;;;1.30;;
30370;SDS011;17164;48.590;11.410;2022-08-05T10:38:01;3.10;;;1.63;;
30370;SDS011;17164;48.590;11.410;2022-08-05T10:40:40;3.20;;;1.70;;
30370;SDS011;17164;48.590;11.410;2022-08-05T10:46:16;5.00;;;1.97;;
30370;SDS011;17164;48.590;11.410;2022-08-05T10:48:46;7.57;;;1.70;;
30370;SDS011;17164;48.590;11.410;2022-08-05T10:51:17;3.50;;;1.80;;
30370;SDS011;17164;48.590;11.410;2022-08-05T10:53:51;4.70;;;1.60;;
30370;SDS011;17164;48.590;11.410;2022-08-05T11:01:29;2.43;;;1.50;;
30370;SDS011;17164;48.590;11.410;2022-08-05T11:04:15;3.87;;;1.50;;
30370;SDS011;17164;48.590;11.410;2022-08-05T11:09:44;4.17;;;1.40;;
30370;SDS011;17164;48.590;11.410;2022-08-05T11:17:39;6.30;;;1.70;;
30370;SDS011;17164;48.590;11.410;2022-08-05T11:20:05;2.93;;;1.50;;
30370;SDS011;17164;48.590;11.410;2022-08-05T11:22:49;3.40;;;1.43;;
30370;SDS011;17164;48.590;11.410;2022-08-05T11:33:31;4.73;;;1.83;;
30370;SDS011;17164;48.590;11.410;2022-08-05T11:36:02;3.87;;;1.20;;
30370;SDS011;17164;48.590;11.410;2022-08-05T11:43:58;3.70;;;1.30;;
30370;SDS011;17164;48.590;11.410;2022-08-05T11:46:26;7.00;;;1.90;;
30370;SDS011;17164;48.590;11.410;2022-08-05T11:48:53;4.40;;;1.60;;
30370;SDS011;17164;48.590;11.410;2022-08-05T11:51:19;6.13;;;1.60;;
30370;SDS011;17164;48.590;11.410;2022-08-05T11:53:46;3.28;;;1.50;;
30370;SDS011;17164;48.590;11.410;2022-08-05T11:56:12;2.97;;;1.57;;
30370;SDS011;17164;48.590;11.410;2022-08-05T11:58:39;4.77;;;1.53;;
30370;SDS011;17164;48.590;11.410;2022-08-05T12:01:08;3.57;;;1.37;;
30370;SDS011;17164;48.590;11.410;2022-08-05T12:04:00;3.03;;;1.50;;
30370;SDS011;17164;48.590;11.410;2022-08-05T12:06:25;3.87;;;1.70;;
30370;SDS011;17164;48.590;11.410;2022-08-05T12:08:56;5.57;;;1.70;;
30370;SDS011;17164;48.590;11.410;2022-08-05T12:11:24;7.30;;;1.70;;
30370;SDS011;17164;48.590;11.410;2022-08-05T12:13:52;2.70;;;1.33;;
30370;SDS011;17164;48.590;11.410;2022-08-05T12:16:24;2.23;;;1.43;;
30370;SDS011;17164;48.590;11.410;2022-08-05T12:18:51;6.77;;;2.23;;
30370;SDS011;17164;48.590;11.410;2022-08-05T12:21:26;2.93;;;1.53;;
30370;SDS011;17164;48.590;11.410;2022-08-05T12:24:02;5.13;;;1.80;;
30370;SDS011;17164;48.590;11.410;2022-08-05T12:29:02;2.27;;;1.40;;
30370;SDS011;17164;48.590;11.410;2022-08-05T12:31:49;4.13;;;1.47;;
30370;SDS011;17164;48.590;11.410;2022-08-05T12:34:17;1.60;;;1.20;;
30370;SDS011;17164;48.590;11.410;2022-08-05T12:36:46;1.80;;;1.37;;
30370;SDS011;17164;48.590;11.410;2022-08-05T12:39:13;4.00;;;1.70;;
30370;SDS011;17164;48.590;11.410;2022-08-05T12:41:39;3.60;;;1.43;;
30370;SDS011;17164;48.590;11.410;2022-08-05T12:44:07;5.73;;;1.93;;
30370;SDS011;17164;48.590;11.410;2022-08-05T12:46:34;4.87;;;1.40;;
30370;SDS011;17164;48.590;11.410;2022-08-05T12:49:05;3.93;;;1.63;;
30370;SDS011;17164;48.590;11.410;2022-08-05T12:51:30;3.00;;;1.33;;
30370;SDS011;17164;48.590;11.410;2022-08-05T12:54:06;1.80;;;1.10;;
30370;SDS011;17164;48.590;11.410;2022-08-05T12:56:33;3.73;;;1.50;;
30370;SDS011;17164;48.590;11.410;2022-08-05T12:59:12;1.90;;;1.20;;
30370;SDS011;17164;48.590;11.410;2022-08-05T13:01:39;3.70;;;1.37;;
30370;SDS011;17164;48.590;11.410;2022-08-05T13:04:05;4.50;;;1.43;;
30370;SDS011;17164;48.590;11.410;2022-08-05T13:06:31;2.60;;;1.13;;
30370;SDS011;17164;48.590;11.410;2022-08-05T13:08:59;2.57;;;1.33;;
30370;SDS011;17164;48.590;11.410;2022-08-05T13:11:31;6.13;;;1.33;;
30370;SDS011;17164;48.590;11.410;2022-08-05T13:13:57;3.00;;;1.10;;
30370;SDS011;17164;48.590;11.410;2022-08-05T13:16:22;2.63;;;1.77;;
30370;SDS011;17164;48.590;11.410;2022-08-05T13:18:52;2.10;;;1.27;;
30370;SDS011;17164;48.590;11.410;2022-08-05T13:21:18;3.67;;;1.63;;
30370;SDS011;17164;48.590;11.410;2022-08-05T13:23:44;3.30;;;1.30;;
30370;SDS011;17164;48.590;11.410;2022-08-05T13:26:10;2.90;;;1.53;;
30370;SDS011;17164;48.590;11.410;2022-08-05T13:28:36;4.17;;;1.50;;
30370;SDS011;17164;48.590;11.410;2022-08-05T13:31:01;6.40;;;2.00;;
30370;SDS011;17164;48.590;11.410;2022-08-05T13:33:27;2.57;;;1.20;;
30370;SDS011;17164;48.590;11.410;2022-08-05T13:35:52;2.23;;;1.50;;
30370;SDS011;17164;48.590;11.410;2022-08-05T13:38:19;1.50;;;1.17;;
30370;SDS011;17164;48.590;11.410;2022-08-05T13:40:45;3.57;;;1.30;;
30370;SDS011;17164;48.590;11.410;2022-08-05T13:43:10;3.43;;;1.30;;
30370;SDS011;17164;48.590;11.410;2022-08-05T13:45:36;4.90;;;1.57;;
30370;SDS011;17164;48.590;11.410;2022-08-05T13:48:01;2.40;;;1.30;;
30370;SDS011;17164;48.590;11.410;2022-08-05T13:50:27;3.00;;;1.70;;
30370;SDS011;17164;48.590;11.410;2022-08-05T13:52:53;3.93;;;1.30;;
30370;SDS011;17164;48.590;11.410;2022-08-05T13:55:18;3.83;;;1.20;;
30370;SDS011;17164;48.590;11.410;2022-08-05T13:57:44;3.83;;;1.73;;
30370;SDS011;17164;48.590;11.410;2022-08-05T14:00:11;4.60;;;1.20;;
30370;SDS011;17164;48.590;11.410;2022-08-05T14:02:37;5.90;;;1.40;;
30370;SDS011;17164;48.590;11.410;2022-08-05T14:05:02;4.20;;;1.40;;
30370;SDS011;17164;48.590;11.410;2022-08-05T14:07:39;4.10;;;1.43;;
30370;SDS011;17164;48.590;11.410;2022-08-05T14:12:33;3.90;;;1.33;;
30370;SDS011;17164;48.590;11.410;2022-08-05T14:15:00;4.10;;;1.20;;
30370;SDS011;17164;48.590;11.410;2022-08-05T14:17:25;2.63;;;1.50;;
30370;SDS011;17164;48.590;11.410;2022-08-05T14:19:51;2.67;;;1.50;;
30370;SDS011;17164;48.590;11.410;2022-08-05T14:22:18;5.40;;;1.63;;
30370;SDS011;17164;48.590;11.410;2022-08-05T14:24:45;5.07;;;1.50;;
30370;SDS011;17164;48.590;11.410;2022-08-05T14:27:11;1.43;;;1.10;;
30370;SDS011;17164;48.590;11.410;2022-08-05T14:29:36;2.60;;;1.47;;
30370;SDS011;17164;48.590;11.410;2022-08-05T14:32:02;5.90;;;1.87;;
30370;SDS011;17164;48.590;11.410;2022-08-05T14:34:28;2.40;;;1.30;;
30370;SDS011;17164;48.590;11.410;2022-08-05T14:36:54;3.23;;;1.30;;
30370;SDS011;17164;48.590;11.410;2022-08-05T14:39:19;2.67;;;1.47;;
30370;SDS011;17164;48.590;11.410;2022-08-05T14:41:45;2.33;;;1.20;;
30370;SDS011;17164;48.590;11.410;2022-08-05T14:44:10;2.33;;;1.00;;
30370;SDS011;17164;48.590;11.410;2022-08-05T14:46:36;2.60;;;1.20;;
30370;SDS011;17164;48.590;11.410;2022-08-05T14:49:02;1.50;;;1.33;;
30370;SDS011;17164;48.590;11.410;2022-08-05T14:51:29;1.80;;;1.20;;
30370;SDS011;17164;48.590;11.410;2022-08-05T14:53:55;3.27;;;1.40;;
30370;SDS011;17164;48.590;11.410;2022-08-05T14:56:20;2.17;;;1.50;;
30370;SDS011;17164;48.590;11.410;2022-08-05T14:58:46;5.70;;;1.50;;
30370;SDS011;17164;48.590;11.410;2022-08-05T15:01:12;3.90;;;1.60;;
30370;SDS011;17164;48.590;11.410;2022-08-05T15:03:38;2.30;;;1.43;;
30370;SDS011;17164;48.590;11.410;2022-08-05T15:06:03;2.67;;;1.37;;
30370;SDS011;17164;48.590;11.410;2022-08-05T15:08:29;1.83;;;1.17;;
30370;SDS011;17164;48.590;11.410;2022-08-05T15:10:55;3.80;;;1.30;;
30370;SDS011;17164;48.590;11.410;2022-08-05T15:13:20;6.13;;;1.40;;
30370;SDS011;17164;48.590;11.410;2022-08-05T15:15:46;1.73;;;1.43;;
30370;SDS011;17164;48.590;11.410;2022-08-05T15:18:12;3.40;;;1.60;;
30370;SDS011;17164;48.590;11.410;2022-08-05T15:20:38;1.73;;;1.30;;
30370;SDS011;17164;48.590;11.410;2022-08-05T15:23:05;2.10;;;1.30;;
30370;SDS011;17164;48.590;11.410;2022-08-05T15:25:32;2.47;;;1.50;;